createdAt,value
2023-02-17T00:00:01.412Z,12.7
2023-02-17T00:05:07.627Z,12.7
2023-02-17T00:10:13.831Z,12.8
2023-02-17T00:15:20.047Z,12.8
2023-02-17T00:20:26.254Z,12.8
2023-02-17T00:25:32.466Z,12.8
2023-02-17T00:30:38.665Z,12.8
2023-02-17T00:35:44.875Z,12.9
2023-02-17T00:40:51.079Z,12.9
2023-02-17T00:45:57.296Z,12.9
2023-02-17T00:51:03.501Z,12.9
2023-02-17T00:56:09.718Z,12.9
2023-02-17T01:01:15.986Z,13.0
2023-02-17T01:06:22.155Z,13.0
2023-02-17T01:11:28.332Z,13.0
2023-02-17T01:16:34.542Z,13.0
2023-02-17T01:21:40.758Z,13.0
2023-02-17T01:26:46.970Z,13.0
2023-02-17T01:31:53.218Z,13.1
2023-02-17T01:36:59.379Z,13.1
2023-02-17T01:42:04.614Z,13.1
2023-02-17T01:47:10.818Z,13.1
2023-02-17T01:52:16.054Z,13.1
2023-02-17T01:57:22.255Z,13.1
2023-02-17T02:02:28.497Z,13.1
2023-02-17T02:07:34.678Z,13.1
2023-02-17T02:12:40.891Z,13.1
2023-02-17T02:17:47.108Z,13.1
2023-02-17T02:22:53.310Z,13.1
2023-02-17T02:27:59.514Z,13.1
2023-02-17T02:33:05.721Z,13.2
2023-02-17T02:38:11.952Z,13.1
2023-02-17T02:43:18.139Z,13.1
2023-02-17T02:48:24.349Z,13.1
2023-02-17T02:53:30.559Z,13.1
2023-02-17T02:58:36.758Z,13.1
2023-02-17T03:03:42.995Z,13.1
2023-02-17T03:08:49.185Z,13.1
2023-02-17T03:13:55.385Z,13.1
2023-02-17T03:19:01.592Z,13.1
2023-02-17T03:24:07.811Z,13.1
2023-02-17T03:29:14.017Z,13.1
2023-02-17T03:34:20.215Z,13.0
2023-02-17T03:39:25.462Z,13.0
2023-02-17T03:44:31.660Z,13.0
2023-02-17T03:49:36.902Z,13.0
2023-02-17T03:54:43.105Z,13.0
2023-02-17T03:59:49.313Z,13.0
2023-02-17T04:04:55.523Z,13.0
2023-02-17T04:10:04.564Z,13.0
2023-02-17T04:15:07.934Z,13.0
2023-02-17T04:20:14.234Z,13.0
2023-02-17T04:25:20.354Z,13.0
2023-02-17T04:30:26.596Z,13.0
2023-02-17T04:35:32.764Z,13.0
2023-02-17T04:40:38.973Z,13.0
2023-02-17T04:45:45.197Z,13.0
2023-02-17T04:50:51.392Z,12.9
2023-02-17T04:55:57.601Z,12.9
2023-02-17T05:01:03.808Z,12.9
2023-02-17T05:06:10.009Z,13.0
2023-02-17T05:11:16.225Z,13.0
2023-02-17T05:16:22.535Z,13.0
2023-02-17T05:21:28.635Z,13.0
2023-02-17T05:26:34.847Z,13.0
2023-02-17T05:31:41.177Z,13.0
2023-02-17T05:36:46.301Z,13.0
2023-02-17T05:41:52.500Z,13.0
2023-02-17T05:46:58.712Z,13.0
2023-02-17T05:52:03.937Z,12.9
2023-02-17T05:57:10.183Z,12.9
2023-02-17T06:02:16.369Z,12.9
2023-02-17T06:07:22.579Z,12.9
2023-02-17T06:12:28.795Z,12.9
2023-02-17T06:17:34.998Z,12.9
2023-02-17T06:22:41.189Z,12.9
2023-02-17T06:27:47.405Z,12.9
2023-02-17T06:32:53.609Z,12.9
2023-02-17T06:37:59.867Z,12.8
2023-02-17T06:43:06.030Z,12.9
2023-02-17T06:48:12.223Z,12.8
2023-02-17T06:53:18.439Z,12.9
2023-02-17T06:58:24.643Z,12.9
2023-02-17T07:03:30.859Z,12.9
2023-02-17T07:08:37.064Z,12.9
2023-02-17T07:13:43.269Z,12.9
2023-02-17T07:18:49.481Z,12.9
2023-02-17T07:23:55.715Z,12.9
2023-02-17T07:29:01.962Z,13.0
2023-02-17T07:34:08.119Z,13.0
2023-02-17T07:39:13.350Z,13.0
2023-02-17T07:44:19.584Z,13.1
2023-02-17T07:49:24.787Z,13.1
2023-02-17T07:54:30.997Z,13.1
2023-02-17T07:59:37.206Z,13.1
2023-02-17T08:04:43.407Z,13.2
2023-02-17T08:09:49.614Z,13.2
2023-02-17T08:14:55.825Z,13.2
2023-02-17T08:20:08.714Z,13.3
2023-02-17T08:25:08.253Z,13.3
2023-02-17T08:30:14.488Z,13.4
2023-02-17T08:35:20.657Z,13.4
2023-02-17T08:40:27.000Z,13.5
2023-02-17T08:45:33.102Z,13.5
2023-02-17T08:50:39.292Z,13.6
2023-02-17T08:55:49.483Z,13.7
2023-02-17T09:00:51.739Z,13.7
2023-02-17T09:05:57.933Z,13.8
2023-02-17T09:11:04.179Z,13.9
2023-02-17T09:16:10.730Z,13.9
2023-02-17T09:21:16.562Z,14.0
2023-02-17T09:26:22.805Z,14.0
2023-02-17T09:31:29.079Z,14.0
2023-02-17T09:36:34.284Z,14.1
2023-02-17T09:41:40.462Z,14.1
2023-02-17T09:46:59.729Z,14.1
2023-02-17T09:51:51.890Z,14.2
2023-02-17T09:56:58.129Z,14.3
2023-02-17T10:02:04.320Z,14.3
2023-02-17T10:07:10.534Z,14.3
2023-02-17T10:12:16.755Z,14.4
2023-02-17T10:17:22.971Z,14.4
2023-02-17T10:22:29.171Z,14.5
2023-02-17T10:27:35.454Z,14.6
2023-02-17T10:32:41.724Z,14.6
2023-02-17T10:37:47.809Z,14.7
2023-02-17T10:42:54.021Z,14.8
2023-02-17T10:48:00.233Z,14.8
2023-02-17T10:53:06.448Z,14.9
2023-02-17T10:58:12.674Z,15.0
2023-02-17T11:03:18.897Z,15.0
2023-02-17T11:08:25.104Z,15.0
2023-02-17T11:13:31.324Z,15.0
2023-02-17T11:18:37.521Z,15.0
2023-02-17T11:23:43.789Z,15.0
2023-02-17T11:28:49.962Z,15.0
2023-02-17T11:33:57.087Z,15.0
2023-02-17T11:39:01.407Z,15.0
2023-02-17T11:44:07.611Z,15.0
2023-02-17T11:49:13.839Z,15.1
2023-02-17T11:54:19.075Z,15.1
2023-02-17T11:59:25.291Z,15.1
2023-02-17T12:04:31.515Z,15.1
2023-02-17T12:09:37.706Z,15.1
2023-02-17T12:14:43.922Z,15.2
2023-02-17T12:19:50.140Z,15.1
2023-02-17T12:24:56.345Z,15.1
2023-02-17T12:30:02.590Z,15.1
2023-02-17T12:35:08.766Z,15.1
2023-02-17T12:40:15.038Z,15.1
2023-02-17T12:45:21.209Z,15.1
2023-02-17T12:50:27.419Z,15.1
2023-02-17T12:55:33.622Z,15.1
2023-02-17T13:00:39.830Z,15.1
2023-02-17T13:05:46.052Z,15.0
2023-02-17T13:10:52.265Z,15.0
2023-02-17T13:15:58.513Z,15.0
2023-02-17T13:21:04.704Z,15.0
2023-02-17T13:26:10.921Z,15.0
2023-02-17T13:31:17.244Z,15.0
2023-02-17T13:36:23.352Z,15.0
2023-02-17T13:41:28.595Z,15.0
2023-02-17T13:46:34.944Z,14.9
2023-02-17T13:51:40.053Z,14.9
2023-02-17T13:56:46.263Z,14.9
2023-02-17T14:01:52.485Z,14.9
2023-02-17T14:06:58.704Z,14.9
2023-02-17T14:12:04.925Z,14.8
2023-02-17T14:17:11.123Z,14.8
2023-02-17T14:22:17.330Z,14.8
2023-02-17T14:27:23.562Z,14.8
2023-02-17T14:32:29.764Z,14.8
2023-02-17T14:37:35.986Z,14.8
2023-02-17T14:42:42.209Z,14.8
2023-02-17T14:47:48.418Z,14.8
2023-02-17T14:52:54.626Z,14.9
2023-02-17T14:58:00.847Z,14.9
2023-02-17T15:03:07.056Z,14.9
2023-02-17T15:08:13.281Z,15.0
2023-02-17T15:13:19.503Z,14.9
2023-02-17T15:18:27.981Z,14.9
2023-02-17T15:23:31.917Z,14.9
2023-02-17T15:28:38.132Z,15.0
2023-02-17T15:33:44.360Z,15.0
2023-02-17T15:38:49.595Z,15.0
2023-02-17T15:43:55.817Z,15.0
2023-02-17T15:49:01.060Z,15.0
2023-02-17T15:54:07.270Z,15.0
2023-02-17T15:59:13.482Z,15.0
2023-02-17T16:04:19.704Z,15.0
2023-02-17T16:09:25.922Z,15.0
2023-02-17T16:14:32.128Z,15.0
2023-02-17T16:19:38.348Z,14.9
2023-02-17T16:24:44.587Z,15.0
2023-02-17T16:29:50.782Z,15.0
2023-02-17T16:34:56.996Z,14.9
2023-02-17T16:40:03.299Z,14.9
2023-02-17T16:45:09.441Z,14.9
2023-02-17T16:50:15.648Z,14.9
2023-02-17T16:55:21.851Z,14.9
2023-02-17T17:00:28.065Z,14.8
2023-02-17T17:05:34.278Z,14.8
2023-02-17T17:10:40.511Z,14.8
2023-02-17T17:15:46.720Z,14.8
2023-02-17T17:20:52.925Z,14.8
2023-02-17T17:25:59.132Z,14.8
2023-02-17T17:31:05.373Z,14.8
2023-02-17T17:36:10.593Z,14.8
2023-02-17T17:41:16.807Z,14.7
2023-02-17T17:46:23.168Z,14.7
2023-02-17T17:51:29.242Z,14.7
2023-02-17T17:56:35.454Z,14.7
2023-02-17T18:01:43.862Z,14.7
2023-02-17T18:06:47.892Z,14.7
2023-02-17T18:11:54.096Z,14.7
2023-02-17T18:17:00.326Z,14.7
2023-02-17T18:22:06.534Z,14.7
2023-02-17T18:27:12.751Z,14.7
2023-02-17T18:32:18.960Z,14.7
2023-02-17T18:37:25.175Z,14.7
2023-02-17T18:42:31.389Z,14.7
2023-02-17T18:47:37.599Z,14.7
2023-02-17T18:52:43.843Z,14.6
2023-02-17T18:57:50.044Z,14.6
2023-02-17T19:02:56.283Z,14.6
2023-02-17T19:08:02.458Z,14.6
2023-02-17T19:13:08.677Z,14.6
2023-02-17T19:18:14.883Z,14.6
2023-02-17T19:23:20.124Z,14.5
2023-02-17T19:28:26.345Z,14.5
2023-02-17T19:33:31.591Z,14.5
2023-02-17T19:38:37.802Z,14.5
2023-02-17T19:43:44.022Z,14.4
2023-02-17T19:48:50.242Z,14.4
2023-02-17T19:53:56.443Z,14.4
2023-02-17T19:59:02.667Z,14.4
2023-02-17T20:04:08.878Z,14.3
2023-02-17T20:09:15.101Z,14.3
2023-02-17T20:14:21.307Z,14.2
2023-02-17T20:19:27.513Z,14.2
2023-02-17T20:24:33.732Z,14.2
2023-02-17T20:29:39.925Z,14.2
2023-02-17T20:34:46.145Z,14.2
2023-02-17T20:39:52.368Z,14.1
2023-02-17T20:44:58.575Z,14.1
2023-02-17T20:50:04.784Z,14.1
2023-02-17T20:55:11.012Z,14.1
2023-02-17T21:00:17.212Z,14.0
2023-02-17T21:05:23.424Z,14.0
2023-02-17T21:10:29.670Z,13.9
2023-02-17T21:15:35.855Z,13.9
2023-02-17T21:20:41.081Z,13.9
2023-02-17T21:25:47.298Z,13.8
2023-02-17T21:30:53.564Z,13.8
2023-02-17T21:35:59.724Z,13.7
2023-02-17T21:41:05.925Z,13.7
2023-02-17T21:46:12.198Z,13.7
2023-02-17T21:51:18.350Z,13.6
2023-02-17T21:56:24.545Z,13.6
2023-02-17T22:01:30.756Z,13.6
2023-02-17T22:06:37.127Z,13.5
2023-02-17T22:11:43.174Z,13.5
2023-02-17T22:16:49.439Z,13.5
2023-02-17T22:21:55.593Z,13.5
2023-02-17T22:27:01.813Z,13.5
2023-02-17T22:32:08.043Z,13.5
2023-02-17T22:37:14.312Z,13.5
2023-02-17T22:42:20.445Z,13.5
2023-02-17T22:47:26.640Z,13.6
2023-02-17T22:52:32.848Z,13.6
2023-02-17T22:57:39.079Z,13.6
2023-02-17T23:02:45.307Z,13.6
2023-02-17T23:07:50.503Z,13.6
2023-02-17T23:12:56.726Z,13.6
2023-02-17T23:18:01.954Z,13.6
2023-02-17T23:23:08.158Z,13.6
2023-02-17T23:28:13.399Z,13.6
2023-02-17T23:33:19.607Z,13.6
2023-02-17T23:38:25.813Z,13.6
2023-02-17T23:43:32.029Z,13.7
2023-02-17T23:48:38.262Z,13.7
2023-02-17T23:53:44.451Z,13.6
2023-02-17T23:58:50.672Z,13.6
